»·PEaware :: N676TX KOLM-KBOI

N676TX :: KOLM-KBOI

FLIGHT INFORMATION

Flight Status: Arrived
Operator: Privately registered:
United States
More flights under this callsign
Pilot: Christopher C. (18958)
Aircraft: SOCATA TBM-900
(TBM9)
More flights by this aircraft type
Origin: KOLM Olympia
United States
Destination: KBOI Boise Air Terminal/Gowen
United States
More flights between these airports :: More routes between these airports
Route: SUMMA BOI
File this flight plan on PilotEdge
Remarks: RMK / SIMBRIEF
Altitude:
(Current/Filed)
31,000ft
Speed:
(Current/Filed)
315kts
Departed: 04-Apr-20 01:31 PM
Arrived: 04-Apr-20 02:43 PM
Distance/Time
Traveled:
348nm/1:12
Distance/Time
To Go:
Arrived

Flight Plot

Page will automatically refresh every two minutes.


Map Options




Map Legend


Flown Route
Filed Route
Departure Airport
Arrival Airport
Navaid (VOR, NDB)
Fix

Horizontal Profiles

Position Reports

Time Latitude Longitude Heading Altitude Ground
Speed
04-Apr-20 13:06 46.977593 -122.899666 142 191ft 0kts
04-Apr-20 13:07 46.977593 -122.899666 142 191ft 0kts
04-Apr-20 13:08 46.977593 -122.899666 142 191ft 0kts
04-Apr-20 13:09 46.977593 -122.899666 142 191ft 0kts
04-Apr-20 13:10 46.977593 -122.899666 142 191ft 0kts
04-Apr-20 13:11 46.977593 -122.899666 142 191ft 0kts
04-Apr-20 13:12 46.977593 -122.899666 142 191ft 0kts
04-Apr-20 13:13 46.977593 -122.899666 142 191ft 0kts
04-Apr-20 13:14 46.977593 -122.899666 142 191ft 0kts
04-Apr-20 13:15 46.977593 -122.899666 142 191ft 0kts
04-Apr-20 13:16 46.977593 -122.899666 142 191ft 0kts
04-Apr-20 13:17 46.977593 -122.899666 142 191ft 0kts
04-Apr-20 13:17 46.977593 -122.899666 142 191ft 0kts
04-Apr-20 13:19 46.977593 -122.899666 142 191ft 0kts
04-Apr-20 13:20 46.977593 -122.899666 142 191ft 0kts
04-Apr-20 13:21 46.977593 -122.899666 142 191ft 0kts
04-Apr-20 13:21 46.977593 -122.899665 142 191ft 0kts
04-Apr-20 13:23 46.977593 -122.899665 142 191ft 0kts
04-Apr-20 13:24 46.977593 -122.899665 142 191ft 0kts
04-Apr-20 13:24 46.977593 -122.899665 142 191ft 0kts
04-Apr-20 13:25 46.977453 -122.899627 185 192ft 0kts
04-Apr-20 13:26 46.977453 -122.899627 185 192ft 0kts
04-Apr-20 13:27 46.977216 -122.899743 204 192ft 5kts
04-Apr-20 13:28 46.976144 -122.901186 281 196ft 0kts
04-Apr-20 13:29 46.976160 -122.902437 192 197ft 7kts
04-Apr-20 13:30 46.955732 -122.904380 146 837ft 131kts
04-Apr-20 13:31 46.954626 -122.854510 79 2722ft 142kts
04-Apr-20 13:32 46.963077 -122.786398 79 3018ft 194kts
04-Apr-20 13:33 46.940613 -122.720815 122 5158ft 143kts
04-Apr-20 13:34 46.920445 -122.675785 122 7572ft 132kts
04-Apr-20 13:35 46.898435 -122.625584 123 9041ft 179kts
04-Apr-20 13:36 46.867044 -122.553685 122 9009ft 226kts
04-Apr-20 13:37 46.834024 -122.477884 124 10498ft 196kts
04-Apr-20 13:38 46.803323 -122.407875 125 12001ft 204kts
04-Apr-20 13:39 46.771567 -122.335629 127 13546ft 211kts
04-Apr-20 13:40 46.738763 -122.261157 127 15055ft 219kts
04-Apr-20 13:41 46.704886 -122.184426 128 16450ft 226kts
04-Apr-20 13:42 46.669828 -122.105244 128 17908ft 233kts
04-Apr-20 13:43 46.633797 -122.024162 128 19131ft 241kts
04-Apr-20 13:44 46.595884 -121.942239 130 20619ft 243kts
04-Apr-20 13:45 46.556415 -121.859685 130 21935ft 248kts
04-Apr-20 13:46 46.516432 -121.776279 130 23261ft 250kts
04-Apr-20 13:47 46.476584 -121.693381 131 24840ft 247kts
04-Apr-20 13:48 46.436809 -121.610894 132 26539ft 248kts
04-Apr-20 13:49 46.396875 -121.528334 133 28355ft 248kts
04-Apr-20 13:50 46.356711 -121.445556 134 30154ft 250kts
04-Apr-20 13:51 46.314316 -121.358643 132 30834ft 288kts
04-Apr-20 13:52 46.265276 -121.258097 132 30815ft 319kts
04-Apr-20 13:53 46.212438 -121.150217 132 30816ft 331kts
04-Apr-20 13:54 46.158043 -121.039642 131 30836ft 336kts
04-Apr-20 13:55 46.102922 -120.928042 131 30847ft 339kts
04-Apr-20 13:56 46.047043 -120.815350 131 30844ft 341kts
04-Apr-20 13:57 45.991068 -120.702878 132 30846ft 342kts
04-Apr-20 13:58 45.934959 -120.590686 131 30844ft 343kts
04-Apr-20 13:59 45.879202 -120.479595 132 30850ft 344kts
04-Apr-20 14:00 45.822205 -120.366478 131 30849ft 346kts
04-Apr-20 14:01 45.766388 -120.256137 132 30843ft 346kts
04-Apr-20 14:02 45.709248 -120.143626 132 30840ft 346kts
04-Apr-20 14:03 45.652041 -120.031423 132 30836ft 345kts
04-Apr-20 14:04 45.595036 -119.920065 132 30836ft 345kts
04-Apr-20 14:05 45.537677 -119.808449 132 30830ft 345kts
04-Apr-20 14:06 45.479955 -119.696573 132 30824ft 346kts
04-Apr-20 14:07 45.422189 -119.585045 132 30819ft 345kts
04-Apr-20 14:08 45.364475 -119.474065 132 30794ft 346kts
04-Apr-20 14:09 45.306934 -119.363839 132 30793ft 345kts
04-Apr-20 14:10 45.250603 -119.256345 133 30786ft 344kts
04-Apr-20 14:11 45.193272 -119.147356 133 30786ft 343kts
04-Apr-20 14:12 45.135580 -119.038114 133 30787ft 343kts
04-Apr-20 14:13 45.077566 -118.928660 133 30765ft 343kts
04-Apr-20 14:14 45.019233 -118.819045 133 30754ft 344kts
04-Apr-20 14:15 44.960943 -118.709909 133 30761ft 344kts
04-Apr-20 14:16 44.902519 -118.600946 133 30762ft 344kts
04-Apr-20 14:17 44.844403 -118.492964 133 30768ft 345kts
04-Apr-20 14:18 44.785671 -118.384263 133 30767ft 345kts
04-Apr-20 14:19 44.728276 -118.278415 133 30760ft 344kts
04-Apr-20 14:20 44.669634 -118.170680 134 30761ft 342kts
04-Apr-20 14:21 44.611211 -118.063745 134 30762ft 342kts
04-Apr-20 14:22 44.552427 -117.956574 133 30752ft 342kts
04-Apr-20 14:23 44.490758 -117.844567 133 28801ft 373kts
04-Apr-20 14:24 44.425761 -117.726947 132 26810ft 382kts
04-Apr-20 14:25 44.360172 -117.608759 132 24797ft 379kts
04-Apr-20 14:26 44.295683 -117.493004 132 22783ft 370kts
04-Apr-20 14:27 44.232602 -117.380261 131 20777ft 363kts
04-Apr-20 14:28 44.171297 -117.271084 132 19140ft 348kts
04-Apr-20 14:29 44.112262 -117.166342 132 17616ft 339kts
04-Apr-20 14:30 44.054421 -117.064108 132 16126ft 330kts
04-Apr-20 14:31 43.997714 -116.964187 132 14666ft 319kts
04-Apr-20 14:32 43.942792 -116.867769 132 13252ft 311kts
04-Apr-20 14:33 43.890781 -116.776719 132 12961ft 288kts
04-Apr-20 14:34 43.841019 -116.689924 132 12939ft 282kts
04-Apr-20 14:35 43.788429 -116.598506 131 10966ft 305kts
04-Apr-20 14:36 43.737112 -116.509501 129 8948ft 275kts
04-Apr-20 14:37 43.690330 -116.428601 129 6916ft 262kts
04-Apr-20 14:38 43.646586 -116.353179 129 5065ft 238kts
04-Apr-20 14:39 43.604104 -116.302849 149 4297ft 169kts
04-Apr-20 14:40 43.580815 -116.267399 118 3275ft 91kts
04-Apr-20 14:41 43.570054 -116.236400 116 2865ft 83kts
04-Apr-20 14:42 43.566496 -116.223973 7 2845ft 11kts
04-Apr-20 14:43 43.568029 -116.226991 294 2842ft 12kts
04-Apr-20 14:44 43.569973 -116.227968 310 2840ft 7kts

Navigation Log

Ident Type
Flight plan parsing failed, navigation log unavailable